createdAt,value
2023-05-23T00:01:31.373Z,37.82
2023-05-23T00:03:58.467Z,37.94
2023-05-23T00:06:24.972Z,37.64
2023-05-23T00:08:51.637Z,37.52
2023-05-23T00:11:20.204Z,37.84
2023-05-23T00:13:46.604Z,37.83
2023-05-23T00:16:13.044Z,38.09
2023-05-23T00:18:42.982Z,38.37
2023-05-23T00:21:10.038Z,38.04
2023-05-23T00:23:36.464Z,38.93
2023-05-23T00:26:03.790Z,38.32
2023-05-23T00:28:30.407Z,38.58
2023-05-23T00:30:56.843Z,38.56
2023-05-23T00:33:23.621Z,39.06
2023-05-23T00:35:50.061Z,38.98
2023-05-23T00:38:16.945Z,39.20
2023-05-23T00:40:43.462Z,39.47
2023-05-23T00:43:10.002Z,39.62
2023-05-23T00:45:36.694Z,39.30
2023-05-23T00:48:04.439Z,39.54
2023-05-23T00:50:30.952Z,39.54
2023-05-23T00:53:00.433Z,39.77
2023-05-23T00:55:27.527Z,39.82
2023-05-23T00:57:57.038Z,39.66
2023-05-23T01:00:24.623Z,40.15
2023-05-23T01:02:52.133Z,40.21
2023-05-23T01:05:20.047Z,40.14
2023-05-23T01:07:49.496Z,40.03
2023-05-23T01:10:19.763Z,40.28
2023-05-23T01:12:55.680Z,40.42
2023-05-23T01:15:26.177Z,40.24
2023-05-23T01:18:05.230Z,40.35
2023-05-23T01:20:37.860Z,39.89
2023-05-23T01:23:20.548Z,40.59
2023-05-23T01:26:18.680Z,39.87
2023-05-23T01:28:54.795Z,40.00
2023-05-23T01:31:23.473Z,40.15
2023-05-23T01:33:53.392Z,39.84
2023-05-23T01:36:21.232Z,40.11
2023-05-23T01:38:47.649Z,40.51
2023-05-23T01:41:14.064Z,40.36
2023-05-23T01:43:40.501Z,40.64
2023-05-23T01:46:08.276Z,40.39
2023-05-23T01:48:35.404Z,40.17
2023-05-23T01:51:02.373Z,40.17
2023-05-23T01:53:30.353Z,40.06
2023-05-23T01:55:57.293Z,40.36
2023-05-23T01:58:23.704Z,40.19
2023-05-23T02:00:50.374Z,40.78
2023-05-23T02:03:17.070Z,40.69
2023-05-23T02:05:44.021Z,40.50
2023-05-23T02:08:10.628Z,40.70
2023-05-23T02:10:37.097Z,40.71
2023-05-23T02:13:03.775Z,40.55
2023-05-23T02:15:30.181Z,40.71
2023-05-23T02:17:57.052Z,41.19
2023-05-23T02:20:23.565Z,40.86
2023-05-23T02:22:50.006Z,40.63
2023-05-23T02:25:16.428Z,40.58
2023-05-23T02:27:42.949Z,40.84
2023-05-23T02:30:09.762Z,40.52
2023-05-23T02:32:37.577Z,40.79
2023-05-23T02:35:05.477Z,41.10
2023-05-23T02:37:31.894Z,41.06
2023-05-23T02:39:58.305Z,41.19
2023-05-23T02:42:24.743Z,41.11
2023-05-23T02:44:51.199Z,41.53
2023-05-23T02:47:17.588Z,41.58
2023-05-23T02:49:44.008Z,41.72
2023-05-23T02:52:10.471Z,41.73
2023-05-23T02:54:36.885Z,41.87
2023-05-23T02:57:04.264Z,41.74
2023-05-23T02:59:30.783Z,42.35
2023-05-23T03:01:57.224Z,41.40
2023-05-23T03:04:23.979Z,41.54
2023-05-23T03:06:54.249Z,41.41
2023-05-23T03:09:20.797Z,41.79
2023-05-23T03:11:47.352Z,42.16
2023-05-23T03:14:13.955Z,41.93
2023-05-23T03:16:40.598Z,41.92
2023-05-23T03:19:07.240Z,42.02
2023-05-23T03:21:35.244Z,41.91
2023-05-23T03:24:01.820Z,41.83
2023-05-23T03:26:28.476Z,42.36
2023-05-23T03:28:55.003Z,42.40
2023-05-23T03:31:21.532Z,42.31
2023-05-23T03:33:48.060Z,43.14
2023-05-23T03:36:14.592Z,42.90
2023-05-23T03:38:41.100Z,42.74
2023-05-23T03:41:07.619Z,43.01
2023-05-23T03:43:34.159Z,43.16
2023-05-23T03:46:00.899Z,43.22
2023-05-23T03:48:27.452Z,43.37
2023-05-23T03:50:54.085Z,43.08
2023-05-23T03:53:20.616Z,43.35
2023-05-23T03:55:47.152Z,43.75
2023-05-23T03:58:13.672Z,43.45
2023-05-23T04:00:40.314Z,43.01
2023-05-23T04:03:06.988Z,42.91
2023-05-23T04:05:33.604Z,43.50
2023-05-23T04:08:01.403Z,43.80
2023-05-23T04:10:28.100Z,43.76
2023-05-23T04:12:54.662Z,43.71
2023-05-23T04:15:21.689Z,43.36
2023-05-23T04:17:48.376Z,44.10
2023-05-23T04:20:14.952Z,44.23
2023-05-23T04:22:41.398Z,43.81
2023-05-23T04:25:09.436Z,44.34
2023-05-23T04:27:36.847Z,44.01
2023-05-23T04:30:05.091Z,43.79
2023-05-23T04:32:31.525Z,44.24
2023-05-23T04:34:58.076Z,44.47
2023-05-23T04:37:26.339Z,44.12
2023-05-23T04:39:53.119Z,44.32
2023-05-23T04:42:24.304Z,44.50
2023-05-23T04:44:51.565Z,44.61
2023-05-23T04:47:19.025Z,44.23
2023-05-23T04:49:45.423Z,44.45
2023-05-23T04:52:11.820Z,44.56
2023-05-23T04:54:40.515Z,45.31
2023-05-23T04:57:07.240Z,44.84
2023-05-23T04:59:33.651Z,45.47
2023-05-23T05:02:00.080Z,44.63
2023-05-23T05:04:26.546Z,44.60
2023-05-23T05:06:53.385Z,44.60
2023-05-23T05:09:19.797Z,44.64
2023-05-23T05:11:46.265Z,44.44
2023-05-23T05:14:12.709Z,44.87
2023-05-23T05:16:39.378Z,45.27
2023-05-23T05:19:06.247Z,44.36
2023-05-23T05:21:32.666Z,44.32
2023-05-23T05:24:00.046Z,44.45
2023-05-23T05:26:26.909Z,43.95
2023-05-23T05:28:55.906Z,44.97
2023-05-23T05:31:22.396Z,44.86
2023-05-23T05:33:49.913Z,44.76
2023-05-23T05:36:16.425Z,47.01
2023-05-23T05:38:42.889Z,47.01
2023-05-23T05:41:09.544Z,48.48
2023-05-23T05:43:36.081Z,48.96
2023-05-23T05:46:02.579Z,49.10
2023-05-23T05:48:29.166Z,49.75
2023-05-23T05:50:55.630Z,50.06
2023-05-23T05:53:22.093Z,49.88
2023-05-23T05:55:48.519Z,49.66
2023-05-23T05:58:14.981Z,49.58
2023-05-23T06:00:44.210Z,49.03
2023-05-23T06:03:11.148Z,47.88
2023-05-23T06:05:37.946Z,48.18
2023-05-23T06:08:04.897Z,47.86
2023-05-23T06:10:31.337Z,47.49
2023-05-23T06:12:58.776Z,48.59
2023-05-23T06:15:25.550Z,47.72
2023-05-23T06:17:52.401Z,47.30
2023-05-23T06:20:18.857Z,47.20
2023-05-23T06:22:45.513Z,46.80
2023-05-23T06:25:12.350Z,46.59
2023-05-23T06:27:38.894Z,46.16
2023-05-23T06:30:06.100Z,46.42
2023-05-23T06:32:32.571Z,45.98
2023-05-23T06:34:59.066Z,45.40
2023-05-23T06:37:25.474Z,45.33
2023-05-23T06:39:51.918Z,47.23
2023-05-23T06:42:18.378Z,45.47
2023-05-23T06:44:44.821Z,45.84
2023-05-23T06:47:11.227Z,47.06
2023-05-23T06:49:37.638Z,47.53
2023-05-23T06:52:04.180Z,48.73
2023-05-23T06:54:30.582Z,48.15
2023-05-23T06:56:57.149Z,49.58
2023-05-23T06:59:23.571Z,49.16
2023-05-23T07:01:50.007Z,48.96
2023-05-23T07:04:16.440Z,47.53
2023-05-23T07:06:42.831Z,49.03
2023-05-23T07:09:09.264Z,50.16
2023-05-23T07:11:35.676Z,49.74
2023-05-23T07:14:02.126Z,50.60
2023-05-23T07:16:28.572Z,49.50
2023-05-23T07:18:55.065Z,50.80
2023-05-23T07:21:21.508Z,50.56
2023-05-23T07:23:47.901Z,51.11
2023-05-23T07:26:14.324Z,50.68
2023-05-23T07:28:40.776Z,50.61
2023-05-23T07:31:09.223Z,47.85
2023-05-23T07:33:35.828Z,46.95
2023-05-23T07:36:02.242Z,46.85
2023-05-23T07:38:28.662Z,47.49
2023-05-23T07:41:03.151Z,48.37
2023-05-23T07:43:36.890Z,48.09
2023-05-23T07:46:03.342Z,47.18
2023-05-23T07:48:29.789Z,47.60
2023-05-23T07:50:56.280Z,46.92
2023-05-23T07:53:22.802Z,47.29
2023-05-23T07:55:49.275Z,47.00
2023-05-23T07:58:16.236Z,47.69
2023-05-23T08:00:44.207Z,48.87
2023-05-23T08:03:11.865Z,47.86
2023-05-23T08:05:38.388Z,46.69
2023-05-23T08:08:04.841Z,47.89
2023-05-23T08:10:31.356Z,45.82
2023-05-23T08:13:00.515Z,46.43
2023-05-23T08:15:26.970Z,47.39
2023-05-23T08:17:56.973Z,48.47
2023-05-23T08:20:30.473Z,47.74
2023-05-23T08:22:59.240Z,47.31
2023-05-23T08:25:26.252Z,48.83
2023-05-23T08:27:53.474Z,46.36
2023-05-23T08:30:23.079Z,47.65
2023-05-23T08:32:49.529Z,47.25
2023-05-23T08:35:16.179Z,47.79
2023-05-23T08:37:43.087Z,48.40
2023-05-23T08:40:21.336Z,49.23
2023-05-23T08:42:49.378Z,47.96
2023-05-23T08:45:16.885Z,48.66
2023-05-23T08:47:44.861Z,49.33
2023-05-23T08:50:21.154Z,48.85
2023-05-23T08:52:56.572Z,48.96
2023-05-23T08:55:28.015Z,47.78
2023-05-23T08:57:55.901Z,47.78
2023-05-23T09:00:23.349Z,51.62
2023-05-23T09:02:49.914Z,50.89
2023-05-23T09:05:16.982Z,51.52
2023-05-23T09:07:47.866Z,52.05
2023-05-23T09:10:17.010Z,52.31
2023-05-23T09:12:44.453Z,52.33
2023-05-23T09:15:11.722Z,52.06
2023-05-23T09:17:38.636Z,53.27
2023-05-23T09:20:15.957Z,51.07
2023-05-23T09:22:47.870Z,52.12
2023-05-23T09:25:14.450Z,51.20
2023-05-23T09:27:42.155Z,49.54
2023-05-23T09:30:10.292Z,49.87
2023-05-23T09:32:36.938Z,49.91
2023-05-23T09:35:07.938Z,50.09
2023-05-23T09:37:40.849Z,52.59
2023-05-23T09:40:11.665Z,51.93
2023-05-23T09:42:45.774Z,51.94
2023-05-23T09:45:13.350Z,52.63
2023-05-23T09:47:39.851Z,51.55
2023-05-23T09:50:08.717Z,51.94
2023-05-23T09:52:38.510Z,50.99
2023-05-23T09:55:06.760Z,51.06
2023-05-23T09:57:39.945Z,52.00
2023-05-23T10:00:11.021Z,50.29
2023-05-23T10:03:02.038Z,50.28
2023-05-23T10:05:38.607Z,51.97
2023-05-23T10:08:10.720Z,52.96
2023-05-23T10:10:58.075Z,51.64
2023-05-23T10:13:28.935Z,52.74
2023-05-23T10:16:27.180Z,53.14
2023-05-23T10:18:58.085Z,51.11
2023-05-23T10:21:29.569Z,53.21
2023-05-23T10:23:59.151Z,53.18
2023-05-23T10:26:27.217Z,53.59
2023-05-23T10:28:54.874Z,53.88
2023-05-23T10:31:21.787Z,53.90
2023-05-23T10:33:56.665Z,55.54
2023-05-23T10:36:30.764Z,56.61
2023-05-23T10:39:08.319Z,59.31
2023-05-23T10:41:43.517Z,60.21
2023-05-23T10:44:19.445Z,63.00
2023-05-23T10:46:52.987Z,63.05
2023-05-23T10:49:20.397Z,62.36
2023-05-23T10:51:52.825Z,64.43
2023-05-23T10:54:22.646Z,64.04
2023-05-23T10:57:03.223Z,62.42
2023-05-23T10:59:29.659Z,62.49
2023-05-23T11:01:56.489Z,63.34
2023-05-23T11:04:27.654Z,60.90
2023-05-23T11:06:55.738Z,63.21
2023-05-23T11:09:22.785Z,62.51
2023-05-23T11:11:49.119Z,61.28
2023-05-23T11:14:15.640Z,61.80
2023-05-23T11:16:46.892Z,62.74
2023-05-23T11:19:20.016Z,64.88
2023-05-23T11:21:49.851Z,65.62
2023-05-23T11:24:17.626Z,64.06
2023-05-23T11:27:04.083Z,63.47
2023-05-23T11:29:30.915Z,64.07
2023-05-23T11:31:57.656Z,64.34
2023-05-23T11:34:27.141Z,63.90
2023-05-23T11:36:55.626Z,64.88
2023-05-23T11:39:23.164Z,64.33
2023-05-23T11:42:02.779Z,63.64
2023-05-23T11:44:29.813Z,62.17
2023-05-23T11:47:01.509Z,61.97
2023-05-23T11:49:29.270Z,63.50
2023-05-23T11:51:56.013Z,62.72
2023-05-23T11:54:24.363Z,65.60
2023-05-23T11:56:51.053Z,64.66
2023-05-23T11:59:17.506Z,64.97
2023-05-23T12:01:43.986Z,63.06
2023-05-23T12:04:13.894Z,63.22
2023-05-23T12:06:41.951Z,64.12
2023-05-23T12:09:11.641Z,64.88
2023-05-23T12:11:39.626Z,64.50
2023-05-23T12:14:06.834Z,64.80
2023-05-23T12:16:34.145Z,64.11
2023-05-23T12:19:02.035Z,64.61
2023-05-23T12:21:42.721Z,64.64
2023-05-23T12:24:17.297Z,64.72
2023-05-23T12:26:55.089Z,65.89
2023-05-23T12:29:27.970Z,67.35
2023-05-23T12:31:54.465Z,66.84
2023-05-23T12:34:21.898Z,67.61
2023-05-23T12:36:50.741Z,66.96
2023-05-23T12:39:26.395Z,64.99
2023-05-23T12:41:52.812Z,65.24
2023-05-23T12:44:19.271Z,65.43
2023-05-23T12:46:46.222Z,66.31
2023-05-23T12:49:12.991Z,64.57
2023-05-23T12:51:40.376Z,65.92
2023-05-23T12:54:09.082Z,64.45
2023-05-23T12:56:35.504Z,64.18
2023-05-23T12:59:03.326Z,64.65
2023-05-23T13:01:30.200Z,64.07
2023-05-23T13:03:56.809Z,67.47
2023-05-23T13:06:23.257Z,66.80
2023-05-23T13:08:51.077Z,69.10
2023-05-23T13:11:17.742Z,70.26
2023-05-23T13:13:44.178Z,68.80
2023-05-23T13:16:11.154Z,70.33
2023-05-23T13:18:37.620Z,71.31
2023-05-23T13:21:04.237Z,71.94
2023-05-23T13:23:30.831Z,70.60
2023-05-23T13:25:58.030Z,70.35
2023-05-23T13:28:24.642Z,69.93
2023-05-23T13:30:51.470Z,70.70
2023-05-23T13:33:18.000Z,70.57
2023-05-23T13:35:44.917Z,68.79
2023-05-23T13:38:11.578Z,72.13
2023-05-23T13:40:37.990Z,70.76
2023-05-23T13:43:04.403Z,70.12
2023-05-23T13:45:31.051Z,69.96
2023-05-23T13:47:57.486Z,69.97
2023-05-23T13:50:23.966Z,70.03
2023-05-23T13:52:50.438Z,68.96
2023-05-23T13:55:18.572Z,70.98
2023-05-23T13:57:45.554Z,71.43
2023-05-23T14:00:12.530Z,72.04
2023-05-23T14:02:38.951Z,72.54
2023-05-23T14:05:07.258Z,71.10
2023-05-23T14:07:33.855Z,70.96
2023-05-23T14:10:00.258Z,70.08
2023-05-23T14:12:26.726Z,72.71
2023-05-23T14:14:53.193Z,72.91
2023-05-23T14:17:19.818Z,72.27
2023-05-23T14:19:47.489Z,72.41
2023-05-23T14:22:14.069Z,73.34
2023-05-23T14:24:40.479Z,73.07
2023-05-23T14:27:09.363Z,72.67
2023-05-23T14:29:36.703Z,73.03
2023-05-23T14:32:04.124Z,72.34
2023-05-23T14:34:30.666Z,72.25
2023-05-23T14:36:57.070Z,74.40
2023-05-23T14:39:25.366Z,73.99
2023-05-23T14:41:51.757Z,75.52
2023-05-23T14:44:18.172Z,74.73
2023-05-23T14:46:48.432Z,75.38
2023-05-23T14:49:15.541Z,75.71
2023-05-23T14:51:49.045Z,74.54
2023-05-23T14:54:17.073Z,74.51
2023-05-23T14:56:43.498Z,76.27
2023-05-23T14:59:09.927Z,76.38
2023-05-23T15:01:39.473Z,76.74
2023-05-23T15:04:09.053Z,76.24
2023-05-23T15:06:37.865Z,75.11
2023-05-23T15:09:04.395Z,75.83
2023-05-23T15:11:32.097Z,75.85
2023-05-23T15:13:59.749Z,76.32
2023-05-23T15:16:26.794Z,76.07
2023-05-23T15:18:53.303Z,75.87
2023-05-23T15:21:19.809Z,75.98
2023-05-23T15:23:46.200Z,74.57
2023-05-23T15:26:12.619Z,75.67
2023-05-23T15:28:39.012Z,74.41
2023-05-23T15:31:05.478Z,74.17
2023-05-23T15:33:32.268Z,73.93
2023-05-23T15:35:59.430Z,74.07
2023-05-23T15:38:25.886Z,74.23
2023-05-23T15:40:54.595Z,74.08
2023-05-23T15:43:21.087Z,74.13
2023-05-23T15:45:49.897Z,75.46
2023-05-23T15:48:16.555Z,76.50
2023-05-23T15:50:43.877Z,75.76
2023-05-23T15:53:10.623Z,76.74
2023-05-23T15:55:39.805Z,78.60
2023-05-23T15:58:07.872Z,81.09
2023-05-23T16:00:34.294Z,82.95
2023-05-23T16:03:00.796Z,81.84
2023-05-23T16:05:27.300Z,82.30
2023-05-23T16:07:53.716Z,83.56
2023-05-23T16:10:20.148Z,81.36
2023-05-23T16:12:46.621Z,81.31
2023-05-23T16:15:13.032Z,81.51
2023-05-23T16:17:39.447Z,80.44
2023-05-23T16:20:06.528Z,80.31
2023-05-23T16:22:32.939Z,79.31
2023-05-23T16:24:59.356Z,79.38
2023-05-23T16:27:25.762Z,78.40
2023-05-23T16:29:52.162Z,79.32
2023-05-23T16:32:18.581Z,78.81
2023-05-23T16:34:49.412Z,79.01
2023-05-23T16:37:19.221Z,81.19
2023-05-23T16:39:45.702Z,80.41
2023-05-23T16:42:12.156Z,81.94
2023-05-23T16:44:38.599Z,83.12
2023-05-23T16:47:05.305Z,86.65
2023-05-23T16:49:31.708Z,86.96
2023-05-23T16:51:58.138Z,89.63
2023-05-23T16:54:24.577Z,88.03
2023-05-23T16:56:51.054Z,88.90
2023-05-23T16:59:17.977Z,86.36
2023-05-23T17:01:44.417Z,86.24
2023-05-23T17:04:10.882Z,84.46
2023-05-23T17:06:37.988Z,84.01
2023-05-23T17:09:04.550Z,83.76
2023-05-23T17:11:30.988Z,82.56
2023-05-23T17:13:57.387Z,85.03
2023-05-23T17:16:23.877Z,82.77
2023-05-23T17:18:50.573Z,80.39
2023-05-23T17:21:17.028Z,81.82
2023-05-23T17:23:43.468Z,80.09
2023-05-23T17:26:10.812Z,81.03
2023-05-23T17:28:37.224Z,79.49
2023-05-23T17:31:03.655Z,78.93
2023-05-23T17:33:30.068Z,79.42
2023-05-23T17:35:56.481Z,78.46
2023-05-23T17:38:22.896Z,77.12
2023-05-23T17:40:49.330Z,77.34
2023-05-23T17:43:15.749Z,76.99
2023-05-23T17:45:42.259Z,77.61
2023-05-23T17:48:08.745Z,76.94
2023-05-23T17:50:35.715Z,77.40
2023-05-23T17:53:04.191Z,77.70
2023-05-23T17:55:30.830Z,77.24
2023-05-23T17:57:57.268Z,73.53
2023-05-23T18:00:24.151Z,75.79
2023-05-23T18:02:51.798Z,77.20
2023-05-23T18:05:20.685Z,76.32
2023-05-23T18:07:47.857Z,76.16
2023-05-23T18:10:14.447Z,76.33
2023-05-23T18:12:41.081Z,76.41
2023-05-23T18:15:08.813Z,78.98
2023-05-23T18:17:35.646Z,77.28
2023-05-23T18:20:02.254Z,75.87
2023-05-23T18:22:31.008Z,76.98
2023-05-23T18:24:57.568Z,76.76
2023-05-23T18:27:23.991Z,76.69
2023-05-23T18:29:50.486Z,76.02
2023-05-23T18:32:16.931Z,74.56
2023-05-23T18:34:43.352Z,74.41
2023-05-23T18:37:09.823Z,75.54
2023-05-23T18:39:36.451Z,75.75
2023-05-23T18:42:02.908Z,74.89
2023-05-23T18:44:29.352Z,75.39
2023-05-23T18:46:55.801Z,75.28
2023-05-23T18:49:22.284Z,74.67
2023-05-23T18:51:51.579Z,75.09
2023-05-23T18:54:18.384Z,75.21
2023-05-23T18:56:44.850Z,75.30
2023-05-23T18:59:14.399Z,73.33
2023-05-23T19:01:40.942Z,73.20
2023-05-23T19:04:08.284Z,74.42
2023-05-23T19:06:34.730Z,74.91
2023-05-23T19:09:01.148Z,75.09
2023-05-23T19:11:28.005Z,74.25
2023-05-23T19:13:54.419Z,75.05
2023-05-23T19:16:21.110Z,74.77
2023-05-23T19:18:48.399Z,75.13
2023-05-23T19:21:14.895Z,73.69
2023-05-23T19:23:41.683Z,74.21
2023-05-23T19:26:08.114Z,75.58
2023-05-23T19:28:34.505Z,75.22
2023-05-23T19:31:01.293Z,75.67
2023-05-23T19:33:27.735Z,74.49
2023-05-23T19:35:54.881Z,74.38
2023-05-23T19:38:21.443Z,74.72
2023-05-23T19:40:47.942Z,74.36
2023-05-23T19:43:14.572Z,73.80
2023-05-23T19:45:40.990Z,74.34
2023-05-23T19:48:07.539Z,74.56
2023-05-23T19:50:34.017Z,74.02
2023-05-23T19:53:00.626Z,74.12
2023-05-23T19:55:27.475Z,73.14
2023-05-23T19:57:53.933Z,72.28
2023-05-23T20:00:20.656Z,73.07
2023-05-23T20:02:47.677Z,70.86
2023-05-23T20:05:14.193Z,71.22
2023-05-23T20:07:40.689Z,70.23
2023-05-23T20:10:07.759Z,70.00
2023-05-23T20:12:34.490Z,69.81
2023-05-23T20:15:04.791Z,68.35
2023-05-23T20:17:31.413Z,67.94
2023-05-23T20:19:57.856Z,68.00
2023-05-23T20:22:24.323Z,66.63
2023-05-23T20:24:50.784Z,66.30
2023-05-23T20:27:17.821Z,66.69
2023-05-23T20:29:44.261Z,65.98
2023-05-23T20:32:10.801Z,65.42
2023-05-23T20:34:37.261Z,65.01
2023-05-23T20:37:05.089Z,65.11
2023-05-23T20:39:31.494Z,65.00
2023-05-23T20:41:57.953Z,64.96
2023-05-23T20:44:24.659Z,65.02
2023-05-23T20:46:51.614Z,64.54
2023-05-23T20:49:18.667Z,65.03
2023-05-23T20:51:45.184Z,65.39
2023-05-23T20:54:12.767Z,64.52
2023-05-23T20:56:39.212Z,64.59
2023-05-23T20:59:05.650Z,64.25
2023-05-23T21:01:32.853Z,64.25
2023-05-23T21:03:59.431Z,63.52
2023-05-23T21:06:25.868Z,64.01
2023-05-23T21:08:52.326Z,63.22
2023-05-23T21:11:18.763Z,63.58
2023-05-23T21:13:45.236Z,63.95
2023-05-23T21:16:14.400Z,63.73
2023-05-23T21:18:41.038Z,63.50
2023-05-23T21:21:07.620Z,63.73
2023-05-23T21:23:34.083Z,63.17
2023-05-23T21:26:00.602Z,62.84
2023-05-23T21:28:27.391Z,62.72
2023-05-23T21:30:54.294Z,62.46
2023-05-23T21:33:21.070Z,61.91
2023-05-23T21:35:47.560Z,62.46
2023-05-23T21:38:13.984Z,62.26
2023-05-23T21:40:40.776Z,62.23
2023-05-23T21:43:07.466Z,62.10
2023-05-23T21:45:33.876Z,62.85
2023-05-23T21:48:00.471Z,62.69
2023-05-23T21:50:26.985Z,62.83
2023-05-23T21:52:53.400Z,62.25
2023-05-23T21:55:19.830Z,62.88
2023-05-23T21:57:46.424Z,62.81
2023-05-23T22:00:13.358Z,62.98
2023-05-23T22:02:40.316Z,62.50
2023-05-23T22:05:07.089Z,63.12
2023-05-23T22:07:33.708Z,62.74
2023-05-23T22:10:00.150Z,63.38
2023-05-23T22:12:26.927Z,63.07
2023-05-23T22:14:54.724Z,63.81
2023-05-23T22:17:22.727Z,63.67
2023-05-23T22:19:51.807Z,63.24
2023-05-23T22:22:18.841Z,63.45
2023-05-23T22:24:45.280Z,63.26
2023-05-23T22:27:11.721Z,63.29
2023-05-23T22:29:38.166Z,63.08
2023-05-23T22:32:05.139Z,63.33
2023-05-23T22:34:31.654Z,62.99
2023-05-23T22:37:00.227Z,62.65
2023-05-23T22:39:26.896Z,62.64
2023-05-23T22:41:53.498Z,62.85
2023-05-23T22:44:19.963Z,63.41
2023-05-23T22:46:46.433Z,63.65
2023-05-23T22:49:12.929Z,63.19
2023-05-23T22:51:40.037Z,63.64
2023-05-23T22:54:06.574Z,63.30
2023-05-23T22:56:33.021Z,63.15
2023-05-23T22:58:59.467Z,63.50
2023-05-23T23:01:25.954Z,63.75
2023-05-23T23:03:52.485Z,63.49
2023-05-23T23:06:20.891Z,63.77
2023-05-23T23:08:47.619Z,63.31
2023-05-23T23:11:14.082Z,63.30
2023-05-23T23:13:40.526Z,63.39
2023-05-23T23:16:08.604Z,63.46
2023-05-23T23:18:35.081Z,63.64
2023-05-23T23:21:01.534Z,63.92
2023-05-23T23:23:27.947Z,63.89
2023-05-23T23:25:54.542Z,63.47
2023-05-23T23:28:20.966Z,63.89
2023-05-23T23:30:47.436Z,63.76
2023-05-23T23:33:14.486Z,63.60
2023-05-23T23:35:41.118Z,64.14
2023-05-23T23:38:07.511Z,63.87
2023-05-23T23:40:33.953Z,63.80
2023-05-23T23:43:00.365Z,63.68
2023-05-23T23:45:26.814Z,63.84
2023-05-23T23:47:53.237Z,63.34
2023-05-23T23:50:19.675Z,63.36
2023-05-23T23:52:46.436Z,64.26
2023-05-23T23:55:12.920Z,63.92
2023-05-23T23:57:39.380Z,64.34
